sensor_id;sensor_type;location;lat;lon;timestamp;P1;durP1;ratioP1;P2;durP2;ratioP2
55461;SDS011;41327;45.102;20.624;2024-02-26T00:01:26;10.05;;;7.15;;
55461;SDS011;41327;45.102;20.624;2024-02-26T00:03:52;11.35;;;6.55;;
55461;SDS011;41327;45.102;20.624;2024-02-26T00:06:17;9.85;;;6.30;;
55461;SDS011;41327;45.102;20.624;2024-02-26T00:08:43;11.15;;;6.80;;
55461;SDS011;41327;45.102;20.624;2024-02-26T00:11:09;11.02;;;7.07;;
55461;SDS011;41327;45.102;20.624;2024-02-26T00:13:35;11.20;;;8.23;;
55461;SDS011;41327;45.102;20.624;2024-02-26T00:16:01;11.65;;;7.30;;
55461;SDS011;41327;45.102;20.624;2024-02-26T00:18:28;10.77;;;7.13;;
55461;SDS011;41327;45.102;20.624;2024-02-26T00:20:53;8.25;;;6.35;;
55461;SDS011;41327;45.102;20.624;2024-02-26T00:23:19;9.60;;;6.43;;
55461;SDS011;41327;45.102;20.624;2024-02-26T00:25:44;12.98;;;6.70;;
55461;SDS011;41327;45.102;20.624;2024-02-26T00:28:10;11.90;;;8.10;;
55461;SDS011;41327;45.102;20.624;2024-02-26T00:30:35;12.57;;;8.00;;
55461;SDS011;41327;45.102;20.624;2024-02-26T00:33:01;11.90;;;7.45;;
55461;SDS011;41327;45.102;20.624;2024-02-26T00:35:27;12.93;;;7.40;;
55461;SDS011;41327;45.102;20.624;2024-02-26T00:37:52;14.18;;;8.65;;
55461;SDS011;41327;45.102;20.624;2024-02-26T00:40:19;13.02;;;8.20;;
55461;SDS011;41327;45.102;20.624;2024-02-26T00:42:45;11.43;;;7.95;;
55461;SDS011;41327;45.102;20.624;2024-02-26T00:45:14;12.40;;;8.00;;
55461;SDS011;41327;45.102;20.624;2024-02-26T00:47:41;14.30;;;8.40;;
55461;SDS011;41327;45.102;20.624;2024-02-26T00:50:07;17.08;;;9.75;;
55461;SDS011;41327;45.102;20.624;2024-02-26T00:52:33;18.38;;;10.80;;
55461;SDS011;41327;45.102;20.624;2024-02-26T00:54:59;19.42;;;10.85;;
55461;SDS011;41327;45.102;20.624;2024-02-26T00:57:25;13.43;;;8.43;;
55461;SDS011;41327;45.102;20.624;2024-02-26T00:59:50;14.38;;;8.35;;
55461;SDS011;41327;45.102;20.624;2024-02-26T01:02:16;12.48;;;8.13;;
55461;SDS011;41327;45.102;20.624;2024-02-26T01:04:41;13.75;;;8.65;;
55461;SDS011;41327;45.102;20.624;2024-02-26T01:07:07;11.43;;;7.40;;
55461;SDS011;41327;45.102;20.624;2024-02-26T01:09:32;11.20;;;8.07;;
55461;SDS011;41327;45.102;20.624;2024-02-26T01:11:58;13.85;;;8.00;;
55461;SDS011;41327;45.102;20.624;2024-02-26T01:14:23;13.02;;;8.27;;
55461;SDS011;41327;45.102;20.624;2024-02-26T01:16:49;13.10;;;9.02;;
55461;SDS011;41327;45.102;20.624;2024-02-26T01:19:15;12.90;;;8.05;;
55461;SDS011;41327;45.102;20.624;2024-02-26T01:21:40;12.20;;;7.60;;
55461;SDS011;41327;45.102;20.624;2024-02-26T01:24:06;17.38;;;8.75;;
55461;SDS011;41327;45.102;20.624;2024-02-26T01:26:33;13.27;;;8.27;;
55461;SDS011;41327;45.102;20.624;2024-02-26T01:28:58;15.23;;;8.27;;
55461;SDS011;41327;45.102;20.624;2024-02-26T01:31:24;12.45;;;8.25;;
55461;SDS011;41327;45.102;20.624;2024-02-26T01:33:50;12.95;;;8.70;;
55461;SDS011;41327;45.102;20.624;2024-02-26T01:36:15;13.50;;;8.57;;
55461;SDS011;41327;45.102;20.624;2024-02-26T01:38:41;15.30;;;10.35;;
55461;SDS011;41327;45.102;20.624;2024-02-26T01:41:06;12.77;;;8.75;;
55461;SDS011;41327;45.102;20.624;2024-02-26T01:43:32;11.73;;;8.57;;
55461;SDS011;41327;45.102;20.624;2024-02-26T01:45:58;16.42;;;8.55;;
55461;SDS011;41327;45.102;20.624;2024-02-26T01:48:23;13.65;;;8.95;;
55461;SDS011;41327;45.102;20.624;2024-02-26T01:50:49;16.30;;;10.15;;
55461;SDS011;41327;45.102;20.624;2024-02-26T01:53:15;13.32;;;9.02;;
55461;SDS011;41327;45.102;20.624;2024-02-26T01:55:41;14.73;;;9.27;;
55461;SDS011;41327;45.102;20.624;2024-02-26T01:58:07;14.23;;;9.15;;
55461;SDS011;41327;45.102;20.624;2024-02-26T02:00:32;12.55;;;8.57;;
55461;SDS011;41327;45.102;20.624;2024-02-26T02:02:58;16.60;;;9.65;;
55461;SDS011;41327;45.102;20.624;2024-02-26T02:05:23;12.13;;;8.35;;
55461;SDS011;41327;45.102;20.624;2024-02-26T02:07:50;14.43;;;9.18;;
55461;SDS011;41327;45.102;20.624;2024-02-26T02:10:16;14.80;;;9.25;;
55461;SDS011;41327;45.102;20.624;2024-02-26T02:12:43;14.20;;;9.70;;
55461;SDS011;41327;45.102;20.624;2024-02-26T02:15:09;16.23;;;10.15;;
55461;SDS011;41327;45.102;20.624;2024-02-26T02:17:35;17.58;;;9.65;;
55461;SDS011;41327;45.102;20.624;2024-02-26T02:20:00;17.48;;;10.95;;
55461;SDS011;41327;45.102;20.624;2024-02-26T02:22:27;13.05;;;8.70;;
55461;SDS011;41327;45.102;20.624;2024-02-26T02:24:52;15.90;;;9.88;;
55461;SDS011;41327;45.102;20.624;2024-02-26T02:27:19;16.67;;;10.75;;
55461;SDS011;41327;45.102;20.624;2024-02-26T02:29:44;16.85;;;10.50;;
55461;SDS011;41327;45.102;20.624;2024-02-26T02:32:10;18.00;;;11.13;;
55461;SDS011;41327;45.102;20.624;2024-02-26T02:34:36;14.68;;;10.73;;
55461;SDS011;41327;45.102;20.624;2024-02-26T02:37:02;18.40;;;10.48;;
55461;SDS011;41327;45.102;20.624;2024-02-26T02:39:27;15.77;;;10.07;;
55461;SDS011;41327;45.102;20.624;2024-02-26T02:41:53;17.17;;;10.23;;
55461;SDS011;41327;45.102;20.624;2024-02-26T02:44:18;21.55;;;9.50;;
55461;SDS011;41327;45.102;20.624;2024-02-26T02:46:44;19.35;;;10.00;;
55461;SDS011;41327;45.102;20.624;2024-02-26T02:49:09;17.00;;;10.90;;
55461;SDS011;41327;45.102;20.624;2024-02-26T02:51:36;20.42;;;11.32;;
55461;SDS011;41327;45.102;20.624;2024-02-26T02:54:02;17.40;;;10.38;;
55461;SDS011;41327;45.102;20.624;2024-02-26T02:56:27;18.52;;;9.95;;
55461;SDS011;41327;45.102;20.624;2024-02-26T02:58:53;14.60;;;9.48;;
55461;SDS011;41327;45.102;20.624;2024-02-26T03:01:18;20.25;;;8.63;;
55461;SDS011;41327;45.102;20.624;2024-02-26T03:03:44;19.52;;;10.77;;
55461;SDS011;41327;45.102;20.624;2024-02-26T03:06:10;16.33;;;11.15;;
55461;SDS011;41327;45.102;20.624;2024-02-26T03:08:35;18.95;;;10.55;;
55461;SDS011;41327;45.102;20.624;2024-02-26T03:11:06;18.17;;;11.63;;
55461;SDS011;41327;45.102;20.624;2024-02-26T03:13:32;20.42;;;11.52;;
55461;SDS011;41327;45.102;20.624;2024-02-26T03:15:57;17.70;;;10.18;;
55461;SDS011;41327;45.102;20.624;2024-02-26T03:18:23;17.60;;;10.73;;
55461;SDS011;41327;45.102;20.624;2024-02-26T03:20:49;17.02;;;10.85;;
55461;SDS011;41327;45.102;20.624;2024-02-26T03:23:14;16.48;;;9.65;;
55461;SDS011;41327;45.102;20.624;2024-02-26T03:25:42;21.35;;;10.50;;
55461;SDS011;41327;45.102;20.624;2024-02-26T03:28:09;19.25;;;12.18;;
55461;SDS011;41327;45.102;20.624;2024-02-26T03:30:34;17.73;;;10.95;;
55461;SDS011;41327;45.102;20.624;2024-02-26T03:33:00;20.83;;;12.63;;
55461;SDS011;41327;45.102;20.624;2024-02-26T03:35:25;19.88;;;11.77;;
55461;SDS011;41327;45.102;20.624;2024-02-26T03:37:50;22.05;;;11.80;;
55461;SDS011;41327;45.102;20.624;2024-02-26T03:40:16;18.15;;;11.65;;
55461;SDS011;41327;45.102;20.624;2024-02-26T03:42:44;16.75;;;10.30;;
55461;SDS011;41327;45.102;20.624;2024-02-26T03:45:10;17.35;;;11.18;;
55461;SDS011;41327;45.102;20.624;2024-02-26T03:47:37;18.02;;;10.60;;
55461;SDS011;41327;45.102;20.624;2024-02-26T03:50:03;20.65;;;12.05;;
55461;SDS011;41327;45.102;20.624;2024-02-26T03:52:30;21.33;;;12.18;;
55461;SDS011;41327;45.102;20.624;2024-02-26T03:54:55;18.30;;;10.20;;
55461;SDS011;41327;45.102;20.624;2024-02-26T03:57:21;16.35;;;10.18;;
55461;SDS011;41327;45.102;20.624;2024-02-26T03:59:46;21.58;;;11.57;;
55461;SDS011;41327;45.102;20.624;2024-02-26T04:02:11;20.20;;;10.57;;
55461;SDS011;41327;45.102;20.624;2024-02-26T04:04:37;19.20;;;12.15;;
55461;SDS011;41327;45.102;20.624;2024-02-26T04:07:03;17.65;;;11.48;;
55461;SDS011;41327;45.102;20.624;2024-02-26T04:09:31;22.20;;;13.60;;
55461;SDS011;41327;45.102;20.624;2024-02-26T04:11:57;23.65;;;13.52;;
55461;SDS011;41327;45.102;20.624;2024-02-26T04:14:28;20.25;;;11.32;;
55461;SDS011;41327;45.102;20.624;2024-02-26T04:16:54;20.30;;;11.23;;
55461;SDS011;41327;45.102;20.624;2024-02-26T04:19:21;22.35;;;13.63;;
55461;SDS011;41327;45.102;20.624;2024-02-26T04:21:57;17.10;;;10.45;;
55461;SDS011;41327;45.102;20.624;2024-02-26T04:24:26;23.65;;;11.75;;
55461;SDS011;41327;45.102;20.624;2024-02-26T04:26:52;22.60;;;10.98;;
55461;SDS011;41327;45.102;20.624;2024-02-26T04:29:17;17.75;;;11.40;;
55461;SDS011;41327;45.102;20.624;2024-02-26T04:31:43;20.25;;;10.43;;
55461;SDS011;41327;45.102;20.624;2024-02-26T04:34:08;18.40;;;9.73;;
55461;SDS011;41327;45.102;20.624;2024-02-26T04:36:34;14.48;;;9.20;;
55461;SDS011;41327;45.102;20.624;2024-02-26T04:38:59;20.70;;;10.35;;
55461;SDS011;41327;45.102;20.624;2024-02-26T04:41:25;20.92;;;10.40;;
55461;SDS011;41327;45.102;20.624;2024-02-26T04:43:50;21.17;;;11.50;;
55461;SDS011;41327;45.102;20.624;2024-02-26T04:46:16;15.13;;;8.90;;
55461;SDS011;41327;45.102;20.624;2024-02-26T04:48:41;21.13;;;10.30;;
55461;SDS011;41327;45.102;20.624;2024-02-26T04:51:07;18.58;;;10.65;;
55461;SDS011;41327;45.102;20.624;2024-02-26T04:53:32;16.63;;;9.95;;
55461;SDS011;41327;45.102;20.624;2024-02-26T04:55:58;17.70;;;9.95;;
55461;SDS011;41327;45.102;20.624;2024-02-26T04:58:23;14.23;;;9.05;;
55461;SDS011;41327;45.102;20.624;2024-02-26T05:00:49;12.48;;;7.85;;
55461;SDS011;41327;45.102;20.624;2024-02-26T05:03:14;23.92;;;9.98;;
55461;SDS011;41327;45.102;20.624;2024-02-26T05:05:41;17.00;;;8.50;;
55461;SDS011;41327;45.102;20.624;2024-02-26T05:08:09;19.23;;;9.23;;
55461;SDS011;41327;45.102;20.624;2024-02-26T05:10:35;21.08;;;10.02;;
55461;SDS011;41327;45.102;20.624;2024-02-26T05:13:04;16.02;;;9.10;;
55461;SDS011;41327;45.102;20.624;2024-02-26T05:15:33;17.80;;;9.07;;
55461;SDS011;41327;45.102;20.624;2024-02-26T05:17:58;16.38;;;9.52;;
55461;SDS011;41327;45.102;20.624;2024-02-26T05:20:24;14.00;;;7.32;;
55461;SDS011;41327;45.102;20.624;2024-02-26T05:22:50;15.68;;;8.75;;
55461;SDS011;41327;45.102;20.624;2024-02-26T05:25:16;18.30;;;10.52;;
55461;SDS011;41327;45.102;20.624;2024-02-26T05:27:42;17.75;;;9.35;;
55461;SDS011;41327;45.102;20.624;2024-02-26T05:30:08;19.35;;;9.68;;
55461;SDS011;41327;45.102;20.624;2024-02-26T05:32:34;17.80;;;9.23;;
55461;SDS011;41327;45.102;20.624;2024-02-26T05:35:00;19.70;;;10.20;;
55461;SDS011;41327;45.102;20.624;2024-02-26T05:37:28;18.98;;;10.50;;
55461;SDS011;41327;45.102;20.624;2024-02-26T05:39:53;14.38;;;8.20;;
55461;SDS011;41327;45.102;20.624;2024-02-26T05:42:19;15.52;;;8.90;;
55461;SDS011;41327;45.102;20.624;2024-02-26T05:44:44;20.15;;;9.95;;
55461;SDS011;41327;45.102;20.624;2024-02-26T05:47:10;17.23;;;8.77;;
55461;SDS011;41327;45.102;20.624;2024-02-26T05:49:35;14.15;;;7.90;;
55461;SDS011;41327;45.102;20.624;2024-02-26T05:52:01;17.40;;;9.77;;
55461;SDS011;41327;45.102;20.624;2024-02-26T05:54:27;15.23;;;8.50;;
55461;SDS011;41327;45.102;20.624;2024-02-26T05:56:52;14.35;;;8.05;;
55461;SDS011;41327;45.102;20.624;2024-02-26T05:59:18;15.45;;;9.82;;
55461;SDS011;41327;45.102;20.624;2024-02-26T06:01:46;20.17;;;10.00;;
55461;SDS011;41327;45.102;20.624;2024-02-26T06:04:12;15.05;;;8.52;;
55461;SDS011;41327;45.102;20.624;2024-02-26T06:06:38;16.48;;;9.27;;
55461;SDS011;41327;45.102;20.624;2024-02-26T06:09:04;16.30;;;9.15;;
55461;SDS011;41327;45.102;20.624;2024-02-26T06:11:30;18.10;;;10.70;;
55461;SDS011;41327;45.102;20.624;2024-02-26T06:13:56;17.00;;;8.40;;
55461;SDS011;41327;45.102;20.624;2024-02-26T06:16:22;22.10;;;11.02;;
55461;SDS011;41327;45.102;20.624;2024-02-26T06:18:48;17.17;;;9.25;;
55461;SDS011;41327;45.102;20.624;2024-02-26T06:21:13;18.35;;;9.82;;
55461;SDS011;41327;45.102;20.624;2024-02-26T06:23:39;17.85;;;8.35;;
55461;SDS011;41327;45.102;20.624;2024-02-26T06:26:05;17.60;;;8.27;;
55461;SDS011;41327;45.102;20.624;2024-02-26T06:28:31;19.67;;;9.13;;
55461;SDS011;41327;45.102;20.624;2024-02-26T06:30:59;21.40;;;8.75;;
55461;SDS011;41327;45.102;20.624;2024-02-26T06:33:24;16.05;;;8.07;;
55461;SDS011;41327;45.102;20.624;2024-02-26T06:35:50;16.40;;;8.65;;
55461;SDS011;41327;45.102;20.624;2024-02-26T06:38:17;15.63;;;10.05;;
55461;SDS011;41327;45.102;20.624;2024-02-26T06:40:43;14.68;;;7.85;;
55461;SDS011;41327;45.102;20.624;2024-02-26T06:43:09;14.95;;;9.73;;
55461;SDS011;41327;45.102;20.624;2024-02-26T06:45:35;16.48;;;8.00;;
55461;SDS011;41327;45.102;20.624;2024-02-26T06:48:01;16.05;;;8.30;;
55461;SDS011;41327;45.102;20.624;2024-02-26T06:50:27;17.30;;;9.25;;
55461;SDS011;41327;45.102;20.624;2024-02-26T06:52:53;18.95;;;10.93;;
55461;SDS011;41327;45.102;20.624;2024-02-26T06:55:18;14.63;;;8.75;;
55461;SDS011;41327;45.102;20.624;2024-02-26T06:57:43;18.25;;;9.82;;
55461;SDS011;41327;45.102;20.624;2024-02-26T07:00:09;20.13;;;8.25;;
55461;SDS011;41327;45.102;20.624;2024-02-26T07:02:39;17.20;;;9.35;;
55461;SDS011;41327;45.102;20.624;2024-02-26T07:05:05;17.77;;;8.50;;
55461;SDS011;41327;45.102;20.624;2024-02-26T07:07:31;16.38;;;8.70;;
55461;SDS011;41327;45.102;20.624;2024-02-26T07:09:57;15.23;;;8.20;;
55461;SDS011;41327;45.102;20.624;2024-02-26T07:12:22;17.10;;;8.55;;
55461;SDS011;41327;45.102;20.624;2024-02-26T07:14:49;18.83;;;8.77;;
55461;SDS011;41327;45.102;20.624;2024-02-26T07:17:15;17.05;;;9.70;;
55461;SDS011;41327;45.102;20.624;2024-02-26T07:19:41;15.38;;;8.73;;
55461;SDS011;41327;45.102;20.624;2024-02-26T07:22:07;18.30;;;10.18;;
55461;SDS011;41327;45.102;20.624;2024-02-26T07:24:32;19.23;;;9.60;;
55461;SDS011;41327;45.102;20.624;2024-02-26T07:26:58;16.60;;;9.00;;
55461;SDS011;41327;45.102;20.624;2024-02-26T07:29:23;14.98;;;8.70;;
55461;SDS011;41327;45.102;20.624;2024-02-26T07:31:49;14.38;;;9.02;;
55461;SDS011;41327;45.102;20.624;2024-02-26T07:34:14;16.50;;;9.93;;
55461;SDS011;41327;45.102;20.624;2024-02-26T07:36:40;16.67;;;9.75;;
55461;SDS011;41327;45.102;20.624;2024-02-26T07:39:05;22.33;;;10.75;;
55461;SDS011;41327;45.102;20.624;2024-02-26T07:41:31;21.60;;;9.75;;
55461;SDS011;41327;45.102;20.624;2024-02-26T07:43:56;14.80;;;9.18;;
55461;SDS011;41327;45.102;20.624;2024-02-26T07:46:22;20.08;;;10.57;;
55461;SDS011;41327;45.102;20.624;2024-02-26T07:48:47;14.15;;;8.30;;
55461;SDS011;41327;45.102;20.624;2024-02-26T07:51:13;16.58;;;9.60;;
55461;SDS011;41327;45.102;20.624;2024-02-26T07:53:42;21.27;;;9.50;;
55461;SDS011;41327;45.102;20.624;2024-02-26T07:56:08;14.63;;;8.63;;
55461;SDS011;41327;45.102;20.624;2024-02-26T07:58:34;17.27;;;9.32;;
55461;SDS011;41327;45.102;20.624;2024-02-26T08:01:00;17.55;;;9.82;;
55461;SDS011;41327;45.102;20.624;2024-02-26T08:03:26;21.17;;;10.32;;
55461;SDS011;41327;45.102;20.624;2024-02-26T08:05:52;15.68;;;8.98;;
55461;SDS011;41327;45.102;20.624;2024-02-26T08:08:17;20.23;;;11.35;;
55461;SDS011;41327;45.102;20.624;2024-02-26T08:10:43;17.65;;;10.40;;
55461;SDS011;41327;45.102;20.624;2024-02-26T08:13:08;15.07;;;9.77;;
55461;SDS011;41327;45.102;20.624;2024-02-26T08:15:37;17.80;;;8.88;;
55461;SDS011;41327;45.102;20.624;2024-02-26T08:18:02;14.63;;;9.07;;
55461;SDS011;41327;45.102;20.624;2024-02-26T08:20:28;15.80;;;9.50;;
55461;SDS011;41327;45.102;20.624;2024-02-26T08:22:55;18.95;;;10.80;;
55461;SDS011;41327;45.102;20.624;2024-02-26T08:25:20;13.45;;;8.52;;
55461;SDS011;41327;45.102;20.624;2024-02-26T08:27:46;17.58;;;9.23;;
55461;SDS011;41327;45.102;20.624;2024-02-26T08:30:13;17.25;;;8.45;;
55461;SDS011;41327;45.102;20.624;2024-02-26T08:32:42;19.83;;;8.90;;
55461;SDS011;41327;45.102;20.624;2024-02-26T08:35:08;17.38;;;8.65;;
55461;SDS011;41327;45.102;20.624;2024-02-26T08:37:33;14.13;;;8.55;;
55461;SDS011;41327;45.102;20.624;2024-02-26T08:39:59;13.88;;;7.20;;
55461;SDS011;41327;45.102;20.624;2024-02-26T08:42:24;16.00;;;8.48;;
55461;SDS011;41327;45.102;20.624;2024-02-26T08:44:50;16.77;;;8.57;;
55461;SDS011;41327;45.102;20.624;2024-02-26T08:47:15;15.48;;;7.95;;
55461;SDS011;41327;45.102;20.624;2024-02-26T08:49:44;13.82;;;9.35;;
55461;SDS011;41327;45.102;20.624;2024-02-26T08:52:10;14.32;;;7.75;;
55461;SDS011;41327;45.102;20.624;2024-02-26T08:54:35;10.48;;;6.65;;
55461;SDS011;41327;45.102;20.624;2024-02-26T08:57:01;8.90;;;5.85;;
55461;SDS011;41327;45.102;20.624;2024-02-26T08:59:27;9.57;;;6.38;;
55461;SDS011;41327;45.102;20.624;2024-02-26T09:01:53;9.40;;;6.32;;
55461;SDS011;41327;45.102;20.624;2024-02-26T09:04:18;10.05;;;6.07;;
55461;SDS011;41327;45.102;20.624;2024-02-26T09:06:44;11.18;;;6.80;;
55461;SDS011;41327;45.102;20.624;2024-02-26T09:09:10;12.23;;;6.93;;
55461;SDS011;41327;45.102;20.624;2024-02-26T09:11:36;7.85;;;4.70;;
55461;SDS011;41327;45.102;20.624;2024-02-26T09:14:01;8.93;;;5.88;;
55461;SDS011;41327;45.102;20.624;2024-02-26T09:16:29;9.43;;;6.50;;
55461;SDS011;41327;45.102;20.624;2024-02-26T09:18:55;9.55;;;6.72;;
55461;SDS011;41327;45.102;20.624;2024-02-26T09:21:21;7.97;;;4.60;;
55461;SDS011;41327;45.102;20.624;2024-02-26T09:23:51;11.45;;;5.45;;
55461;SDS011;41327;45.102;20.624;2024-02-26T09:26:17;9.38;;;5.40;;
55461;SDS011;41327;45.102;20.624;2024-02-26T09:28:43;9.63;;;6.18;;
55461;SDS011;41327;45.102;20.624;2024-02-26T09:31:09;12.07;;;6.22;;
55461;SDS011;41327;45.102;20.624;2024-02-26T09:33:35;11.68;;;6.03;;
55461;SDS011;41327;45.102;20.624;2024-02-26T09:36:01;12.70;;;5.80;;
55461;SDS011;41327;45.102;20.624;2024-02-26T09:38:27;11.75;;;5.72;;
55461;SDS011;41327;45.102;20.624;2024-02-26T09:40:53;6.72;;;4.97;;
55461;SDS011;41327;45.102;20.624;2024-02-26T09:43:21;6.57;;;4.30;;
55461;SDS011;41327;45.102;20.624;2024-02-26T09:45:49;12.40;;;5.13;;
55461;SDS011;41327;45.102;20.624;2024-02-26T09:48:16;9.13;;;5.30;;
55461;SDS011;41327;45.102;20.624;2024-02-26T09:50:43;9.55;;;4.90;;
55461;SDS011;41327;45.102;20.624;2024-02-26T09:53:09;11.02;;;6.68;;
55461;SDS011;41327;45.102;20.624;2024-02-26T09:55:35;4.25;;;3.45;;
55461;SDS011;41327;45.102;20.624;2024-02-26T09:58:01;9.70;;;4.65;;
55461;SDS011;41327;45.102;20.624;2024-02-26T10:00:27;5.07;;;3.38;;
55461;SDS011;41327;45.102;20.624;2024-02-26T10:02:58;6.25;;;4.15;;
55461;SDS011;41327;45.102;20.624;2024-02-26T10:05:29;5.72;;;3.72;;
55461;SDS011;41327;45.102;20.624;2024-02-26T10:07:55;6.03;;;3.67;;
55461;SDS011;41327;45.102;20.624;2024-02-26T10:10:22;5.72;;;3.42;;
55461;SDS011;41327;45.102;20.624;2024-02-26T10:12:48;7.65;;;3.78;;
55461;SDS011;41327;45.102;20.624;2024-02-26T10:15:14;5.53;;;3.63;;
55461;SDS011;41327;45.102;20.624;2024-02-26T10:17:40;8.35;;;3.22;;
55461;SDS011;41327;45.102;20.624;2024-02-26T10:20:17;8.13;;;3.40;;
55461;SDS011;41327;45.102;20.624;2024-02-26T10:22:44;6.65;;;3.85;;
55461;SDS011;41327;45.102;20.624;2024-02-26T10:25:10;6.47;;;3.70;;
55461;SDS011;41327;45.102;20.624;2024-02-26T10:27:35;5.25;;;3.78;;
55461;SDS011;41327;45.102;20.624;2024-02-26T10:30:04;4.40;;;2.80;;
55461;SDS011;41327;45.102;20.624;2024-02-26T10:32:40;5.20;;;2.92;;
55461;SDS011;41327;45.102;20.624;2024-02-26T10:35:08;7.30;;;3.65;;
55461;SDS011;41327;45.102;20.624;2024-02-26T10:37:34;8.38;;;3.72;;
55461;SDS011;41327;45.102;20.624;2024-02-26T10:39:59;6.40;;;4.13;;
55461;SDS011;41327;45.102;20.624;2024-02-26T10:42:25;8.60;;;4.65;;
55461;SDS011;41327;45.102;20.624;2024-02-26T10:44:51;4.45;;;2.95;;
55461;SDS011;41327;45.102;20.624;2024-02-26T10:47:16;7.18;;;3.35;;
55461;SDS011;41327;45.102;20.624;2024-02-26T10:49:46;4.95;;;3.30;;
55461;SDS011;41327;45.102;20.624;2024-02-26T10:52:14;6.15;;;3.85;;
55461;SDS011;41327;45.102;20.624;2024-02-26T10:54:41;7.95;;;4.05;;
55461;SDS011;41327;45.102;20.624;2024-02-26T10:57:08;5.93;;;3.08;;
55461;SDS011;41327;45.102;20.624;2024-02-26T10:59:34;5.25;;;3.42;;
55461;SDS011;41327;45.102;20.624;2024-02-26T11:02:00;4.32;;;3.65;;
55461;SDS011;41327;45.102;20.624;2024-02-26T11:04:26;7.43;;;3.40;;
55461;SDS011;41327;45.102;20.624;2024-02-26T11:06:54;6.97;;;3.25;;
55461;SDS011;41327;45.102;20.624;2024-02-26T11:09:20;5.32;;;2.75;;
55461;SDS011;41327;45.102;20.624;2024-02-26T11:11:47;6.25;;;4.00;;
55461;SDS011;41327;45.102;20.624;2024-02-26T11:14:13;4.45;;;3.25;;
55461;SDS011;41327;45.102;20.624;2024-02-26T11:16:39;4.32;;;3.22;;
55461;SDS011;41327;45.102;20.624;2024-02-26T11:19:08;5.78;;;3.50;;
55461;SDS011;41327;45.102;20.624;2024-02-26T11:21:35;6.40;;;4.78;;
55461;SDS011;41327;45.102;20.624;2024-02-26T11:24:14;8.02;;;3.83;;
55461;SDS011;41327;45.102;20.624;2024-02-26T11:26:50;6.85;;;4.18;;
55461;SDS011;41327;45.102;20.624;2024-02-26T11:29:24;4.97;;;3.28;;
55461;SDS011;41327;45.102;20.624;2024-02-26T11:31:52;4.18;;;2.53;;
55461;SDS011;41327;45.102;20.624;2024-02-26T11:34:18;4.93;;;3.15;;
55461;SDS011;41327;45.102;20.624;2024-02-26T11:36:43;4.82;;;3.13;;
55461;SDS011;41327;45.102;20.624;2024-02-26T11:39:11;5.75;;;3.30;;
55461;SDS011;41327;45.102;20.624;2024-02-26T11:41:38;5.03;;;3.63;;
55461;SDS011;41327;45.102;20.624;2024-02-26T11:44:04;5.28;;;2.90;;
55461;SDS011;41327;45.102;20.624;2024-02-26T11:46:41;6.20;;;2.80;;
55461;SDS011;41327;45.102;20.624;2024-02-26T11:49:30;7.10;;;3.08;;
55461;SDS011;41327;45.102;20.624;2024-02-26T11:51:57;4.15;;;2.80;;
55461;SDS011;41327;45.102;20.624;2024-02-26T11:57:21;6.70;;;3.28;;
55461;SDS011;41327;45.102;20.624;2024-02-26T12:00:15;5.40;;;3.13;;
55461;SDS011;41327;45.102;20.624;2024-02-26T12:07:47;7.95;;;4.38;;
55461;SDS011;41327;45.102;20.624;2024-02-26T12:10:25;6.78;;;3.22;;
55461;SDS011;41327;45.102;20.624;2024-02-26T12:13:12;5.38;;;2.58;;
55461;SDS011;41327;45.102;20.624;2024-02-26T12:15:41;7.03;;;2.65;;
55461;SDS011;41327;45.102;20.624;2024-02-26T12:18:17;6.55;;;3.20;;
55461;SDS011;41327;45.102;20.624;2024-02-26T12:20:43;8.52;;;2.60;;
55461;SDS011;41327;45.102;20.624;2024-02-26T12:23:09;4.63;;;2.83;;
55461;SDS011;41327;45.102;20.624;2024-02-26T12:25:40;5.40;;;2.88;;
55461;SDS011;41327;45.102;20.624;2024-02-26T12:28:06;4.15;;;1.98;;
55461;SDS011;41327;45.102;20.624;2024-02-26T12:30:32;4.25;;;2.50;;
55461;SDS011;41327;45.102;20.624;2024-02-26T12:32:58;7.65;;;3.95;;
55461;SDS011;41327;45.102;20.624;2024-02-26T12:35:26;4.25;;;2.65;;
55461;SDS011;41327;45.102;20.624;2024-02-26T12:37:55;4.55;;;2.80;;
55461;SDS011;41327;45.102;20.624;2024-02-26T12:40:21;5.40;;;2.65;;
55461;SDS011;41327;45.102;20.624;2024-02-26T12:42:47;5.93;;;3.20;;
55461;SDS011;41327;45.102;20.624;2024-02-26T12:45:13;5.53;;;3.05;;
55461;SDS011;41327;45.102;20.624;2024-02-26T12:47:41;7.55;;;3.60;;
55461;SDS011;41327;45.102;20.624;2024-02-26T12:50:08;6.03;;;3.60;;
55461;SDS011;41327;45.102;20.624;2024-02-26T12:52:35;5.30;;;2.88;;
55461;SDS011;41327;45.102;20.624;2024-02-26T12:55:02;4.85;;;3.40;;
55461;SDS011;41327;45.102;20.624;2024-02-26T12:57:29;7.38;;;3.80;;
55461;SDS011;41327;45.102;20.624;2024-02-26T12:59:56;8.55;;;4.00;;
55461;SDS011;41327;45.102;20.624;2024-02-26T13:02:22;5.93;;;3.83;;
55461;SDS011;41327;45.102;20.624;2024-02-26T13:04:48;10.45;;;4.47;;
55461;SDS011;41327;45.102;20.624;2024-02-26T13:07:14;5.97;;;3.95;;
55461;SDS011;41327;45.102;20.624;2024-02-26T13:09:39;6.53;;;4.05;;
55461;SDS011;41327;45.102;20.624;2024-02-26T13:12:05;9.38;;;4.40;;
55461;SDS011;41327;45.102;20.624;2024-02-26T13:14:31;4.85;;;3.40;;
55461;SDS011;41327;45.102;20.624;2024-02-26T13:16:59;7.35;;;3.78;;
55461;SDS011;41327;45.102;20.624;2024-02-26T13:19:25;4.28;;;2.50;;
55461;SDS011;41327;45.102;20.624;2024-02-26T13:21:52;3.97;;;2.42;;
55461;SDS011;41327;45.102;20.624;2024-02-26T13:24:19;4.43;;;2.40;;
55461;SDS011;41327;45.102;20.624;2024-02-26T13:26:45;4.88;;;3.13;;
55461;SDS011;41327;45.102;20.624;2024-02-26T13:29:18;23.70;;;12.32;;
55461;SDS011;41327;45.102;20.624;2024-02-26T13:31:43;29.42;;;15.75;;
55461;SDS011;41327;45.102;20.624;2024-02-26T13:34:09;18.75;;;9.15;;
55461;SDS011;41327;45.102;20.624;2024-02-26T13:36:34;7.55;;;3.85;;
55461;SDS011;41327;45.102;20.624;2024-02-26T13:39:01;12.52;;;6.47;;
55461;SDS011;41327;45.102;20.624;2024-02-26T13:41:29;7.47;;;4.25;;
55461;SDS011;41327;45.102;20.624;2024-02-26T13:43:55;10.30;;;5.25;;
55461;SDS011;41327;45.102;20.624;2024-02-26T13:46:22;6.28;;;4.03;;
55461;SDS011;41327;45.102;20.624;2024-02-26T13:48:48;3.55;;;2.47;;
55461;SDS011;41327;45.102;20.624;2024-02-26T13:51:13;5.35;;;3.72;;
55461;SDS011;41327;45.102;20.624;2024-02-26T13:53:39;7.18;;;4.10;;
55461;SDS011;41327;45.102;20.624;2024-02-26T13:56:06;12.02;;;4.10;;
55461;SDS011;41327;45.102;20.624;2024-02-26T13:58:32;4.85;;;3.00;;
55461;SDS011;41327;45.102;20.624;2024-02-26T14:00:57;6.18;;;4.05;;
55461;SDS011;41327;45.102;20.624;2024-02-26T14:03:24;5.47;;;3.72;;
55461;SDS011;41327;45.102;20.624;2024-02-26T14:05:50;6.93;;;3.88;;
55461;SDS011;41327;45.102;20.624;2024-02-26T14:08:16;9.00;;;4.00;;
55461;SDS011;41327;45.102;20.624;2024-02-26T14:10:41;5.30;;;3.40;;
55461;SDS011;41327;45.102;20.624;2024-02-26T14:13:07;5.82;;;3.78;;
55461;SDS011;41327;45.102;20.624;2024-02-26T14:15:34;11.95;;;6.70;;
55461;SDS011;41327;45.102;20.624;2024-02-26T14:18:00;11.13;;;5.15;;
55461;SDS011;41327;45.102;20.624;2024-02-26T14:20:28;5.97;;;3.80;;
55461;SDS011;41327;45.102;20.624;2024-02-26T14:22:53;8.68;;;4.80;;
55461;SDS011;41327;45.102;20.624;2024-02-26T14:25:19;14.60;;;5.18;;
55461;SDS011;41327;45.102;20.624;2024-02-26T14:27:49;7.05;;;4.18;;